Time;durP1;ratioP1;P1;durP2;ratioP2;P2;SDS_P1;SDS_P2;PMS_P1;PMS_P2;Temp;Humidity;BMP_temperature;BMP_pressure;BME280_temperature;BME280_humidity;BME280_pressure;Samples;Min_cycle;Max_cycle;Signal;HPM_P1;HPM_P2
2022/07/23 00:00:40;;;;;;;10.15;5.03;;;;;;;;;;5166642;27;20194;-71
2022/07/23 00:03:06;;;;;;;4.90;4.47;;;;;;;;;;5166985;27;20245;-71
2022/07/23 00:05:33;;;;;;;4.80;4.50;;;;;;;;;;5166698;27;20221;-71
2022/07/23 00:07:59;;;;;;;6.90;4.75;;;;;;;;;;5166198;27;20197;-71
2022/07/23 00:10:25;;;;;;;5.60;4.85;;;;;;;;;;5166603;27;20197;-71
2022/07/23 00:12:51;;;;;;;5.07;4.55;;;;;;;;;;5166436;27;20230;-71
2022/07/23 00:15:19;;;;;;;4.40;4.10;;;;;;;;;;5166272;27;20194;-71
2022/07/23 00:17:45;;;;;;;4.70;4.25;;;;;;;;;;5166126;27;20193;-71
2022/07/23 00:20:12;;;;;;;4.97;3.83;;;;;;;;;;5166491;27;20497;-71
2022/07/23 00:22:45;;;;;;;4.78;3.85;;;;;;;;;;5166356;27;20193;-71
2022/07/23 00:25:12;;;;;;;4.38;3.90;;;;;;;;;;5166228;27;20193;-71
2022/07/23 00:27:38;;;;;;;6.10;4.20;;;;;;;;;;5165768;27;20197;-71
2022/07/23 00:30:05;;;;;;;4.95;4.07;;;;;;;;;;5166224;27;20536;-71
2022/07/23 00:32:33;;;;;;;4.00;3.80;;;;;;;;;;5166255;27;20250;-71
2022/07/23 00:34:59;;;;;;;4.18;3.97;;;;;;;;;;5166100;27;20192;-71
2022/07/23 00:37:25;;;;;;;4.32;3.92;;;;;;;;;;5165976;27;20286;-71
2022/07/23 00:39:52;;;;;;;4.68;4.38;;;;;;;;;;5165965;27;20533;-71
2022/07/23 00:42:18;;;;;;;4.35;4.05;;;;;;;;;;5165721;27;20193;-71
2022/07/23 00:44:44;;;;;;;4.03;3.80;;;;;;;;;;5166001;27;20496;-71
2022/07/23 00:47:10;;;;;;;4.07;3.78;;;;;;;;;;5165514;27;20501;-71
2022/07/23 00:49:38;;;;;;;4.03;3.72;;;;;;;;;;5165842;27;20220;-71
2022/07/23 00:52:06;;;;;;;2.83;2.70;;;;;;;;;;5165610;27;20193;-71
2022/07/23 00:54:32;;;;;;;3.35;3.15;;;;;;;;;;5165648;27;20201;-71
2022/07/23 00:56:58;;;;;;;3.17;3.00;;;;;;;;;;5165139;27;20193;-71
2022/07/23 00:59:24;;;;;;;4.75;2.97;;;;;;;;;;5165686;27;20552;-71
2022/07/23 01:01:51;;;;;;;2.78;2.67;;;;;;;;;;5165673;27;20381;-71
2022/07/23 01:04:17;;;;;;;5.13;2.85;;;;;;;;;;5165491;27;20356;-71
2022/07/23 01:06:45;;;;;;;3.13;2.80;;;;;;;;;;5164998;27;20222;-71
2022/07/23 01:09:12;;;;;;;2.80;2.70;;;;;;;;;;5165162;27;20213;-71
2022/07/23 01:11:38;;;;;;;2.67;2.50;;;;;;;;;;5165177;27;20205;-71
2022/07/23 01:14:15;;;;;;;2.70;2.50;;;;;;;;;;5165412;27;20201;-71
2022/07/23 01:16:42;;;;;;;3.25;3.08;;;;;;;;;;5165075;27;20215;-71
2022/07/23 01:19:08;;;;;;;2.80;2.60;;;;;;;;;;5164835;27;20193;-71
2022/07/23 01:21:38;;;;;;;3.45;2.75;;;;;;;;;;5165036;27;20552;-71
2022/07/23 01:24:07;;;;;;;2.67;2.53;;;;;;;;;;5165024;27;20303;-71
2022/07/23 01:26:33;;;;;;;2.90;2.80;;;;;;;;;;5164907;27;20253;-71
2022/07/23 01:28:59;;;;;;;2.67;2.45;;;;;;;;;;5165071;27;20216;-71
2022/07/23 01:31:25;;;;;;;3.63;3.00;;;;;;;;;;5164941;27;20801;-71
2022/07/23 01:33:52;;;;;;;2.88;2.67;;;;;;;;;;5164737;27;20216;-71
2022/07/23 01:36:18;;;;;;;2.92;2.80;;;;;;;;;;5164801;27;20238;-71
2022/07/23 01:38:44;;;;;;;3.38;2.95;;;;;;;;;;5164967;27;20193;-71
2022/07/23 01:41:12;;;;;;;3.47;3.17;;;;;;;;;;5164723;27;20197;-71
2022/07/23 01:43:38;;;;;;;2.88;2.78;;;;;;;;;;5164807;27;20193;-71
2022/07/23 01:46:05;;;;;;;3.97;2.95;;;;;;;;;;5164498;27;20411;-71
2022/07/23 01:48:31;;;;;;;4.78;2.75;;;;;;;;;;5164465;27;20420;-71
2022/07/23 01:50:57;;;;;;;3.22;3.00;;;;;;;;;;5164782;27;20196;-71
2022/07/23 01:53:23;;;;;;;3.03;2.92;;;;;;;;;;5164836;27;20193;-71
2022/07/23 01:55:49;;;;;;;3.13;3.03;;;;;;;;;;5164637;27;20185;-71
2022/07/23 01:58:17;;;;;;;3.45;3.15;;;;;;;;;;5163852;27;20193;-71
2022/07/23 02:00:43;;;;;;;3.40;3.25;;;;;;;;;;5164434;27;20189;-71
2022/07/23 02:03:10;;;;;;;3.65;3.22;;;;;;;;;;5164246;27;20430;-71
2022/07/23 02:05:36;;;;;;;3.38;3.28;;;;;;;;;;5164446;27;20443;-71
2022/07/23 02:08:02;;;;;;;3.78;3.30;;;;;;;;;;5164338;27;20293;-71
2022/07/23 02:10:28;;;;;;;4.00;3.70;;;;;;;;;;5164199;27;20214;-71
2022/07/23 02:12:55;;;;;;;4.10;3.35;;;;;;;;;;5164281;27;20230;-71
2022/07/23 02:15:23;;;;;;;3.63;3.33;;;;;;;;;;5164239;27;20229;-71
2022/07/23 02:17:49;;;;;;;3.33;3.22;;;;;;;;;;5164068;27;20439;-71
2022/07/23 02:20:16;;;;;;;3.25;3.08;;;;;;;;;;5164194;27;20189;-71
2022/07/23 02:22:42;;;;;;;3.30;3.10;;;;;;;;;;5164305;27;20193;-71
2022/07/23 02:25:09;;;;;;;3.17;3.03;;;;;;;;;;5164103;27;20246;-71
2022/07/23 02:27:35;;;;;;;3.50;3.22;;;;;;;;;;5163959;27;20192;-71
2022/07/23 02:30:01;;;;;;;3.28;3.08;;;;;;;;;;5164027;27;20258;-71
2022/07/23 02:32:29;;;;;;;3.42;3.30;;;;;;;;;;5164411;27;20209;-71
2022/07/23 02:34:55;;;;;;;3.95;3.45;;;;;;;;;;5164233;27;20420;-71
2022/07/23 02:37:21;;;;;;;3.60;3.40;;;;;;;;;;5163901;27;20550;-71
2022/07/23 02:39:48;;;;;;;3.80;2.90;;;;;;;;;;5164365;27;20501;-71
2022/07/23 02:42:15;;;;;;;3.83;3.50;;;;;;;;;;5164040;27;20201;-71
2022/07/23 02:44:41;;;;;;;3.85;3.35;;;;;;;;;;5163853;27;20200;-71
2022/07/23 02:47:07;;;;;;;3.95;3.28;;;;;;;;;;5163898;27;20485;-71
2022/07/23 02:49:35;;;;;;;4.40;3.40;;;;;;;;;;5163930;27;20328;-71
2022/07/23 02:52:02;;;;;;;3.30;3.10;;;;;;;;;;5164092;27;20238;-71
2022/07/23 02:54:28;;;;;;;3.17;3.08;;;;;;;;;;5163940;27;20419;-71
2022/07/23 02:56:55;;;;;;;3.85;3.55;;;;;;;;;;5164062;27;20269;-71
2022/07/23 02:59:21;;;;;;;3.25;3.10;;;;;;;;;;5163700;27;20409;-71
2022/07/23 03:01:47;;;;;;;3.88;3.58;;;;;;;;;;5163955;27;20264;-71
2022/07/23 03:04:13;;;;;;;3.67;3.38;;;;;;;;;;5163792;27;20262;-71
2022/07/23 03:06:41;;;;;;;3.40;3.20;;;;;;;;;;5163155;27;20221;-71
2022/07/23 03:09:07;;;;;;;4.30;3.53;;;;;;;;;;5163978;27;20216;-71
2022/07/23 03:11:33;;;;;;;3.70;3.50;;;;;;;;;;5167672;27;20193;-71
2022/07/23 03:14:00;;;;;;;3.58;3.40;;;;;;;;;;5167560;27;20201;-71
2022/07/23 03:16:26;;;;;;;4.00;3.70;;;;;;;;;;5167616;27;20193;-71
2022/07/23 03:18:52;;;;;;;3.70;3.40;;;;;;;;;;5167552;27;20197;-71
2022/07/23 03:21:18;;;;;;;3.55;3.38;;;;;;;;;;5167509;27;20501;-71
2022/07/23 03:23:46;;;;;;;3.70;3.50;;;;;;;;;;5167476;27;20561;-71
2022/07/23 03:26:12;;;;;;;3.50;3.22;;;;;;;;;;5167142;27;20209;-71
2022/07/23 03:28:38;;;;;;;3.75;3.45;;;;;;;;;;5167215;27;20497;-71
2022/07/23 03:31:05;;;;;;;4.07;3.80;;;;;;;;;;5167340;27;20238;-71
2022/07/23 03:33:31;;;;;;;4.30;4.00;;;;;;;;;;5167140;27;20189;-71
2022/07/23 03:35:57;;;;;;;4.07;3.60;;;;;;;;;;5167095;27;20197;-71
2022/07/23 03:38:23;;;;;;;3.80;3.55;;;;;;;;;;5167055;27;20193;-71
2022/07/23 03:40:51;;;;;;;3.67;3.38;;;;;;;;;;5167198;27;20197;-71
2022/07/23 03:43:17;;;;;;;4.60;4.00;;;;;;;;;;5167590;27;20198;-71
2022/07/23 03:45:43;;;;;;;6.00;5.40;;;;;;;;;;5167217;27;20238;-71
2022/07/23 03:48:10;;;;;;;9.88;6.88;;;;;;;;;;5166745;27;20189;-71
2022/07/23 03:50:37;;;;;;;5.60;5.10;;;;;;;;;;5166760;27;20219;-71
2022/07/23 03:53:03;;;;;;;4.32;4.05;;;;;;;;;;5166844;27;20350;-71
2022/07/23 03:55:29;;;;;;;5.25;4.80;;;;;;;;;;5166720;27;20238;-71
2022/07/23 03:57:57;;;;;;;5.65;5.15;;;;;;;;;;5166897;27;20197;-71
2022/07/23 04:00:23;;;;;;;5.28;4.88;;;;;;;;;;5166980;27;20245;-71
2022/07/23 04:02:49;;;;;;;4.53;4.22;;;;;;;;;;5166608;27;20238;-71
2022/07/23 04:05:16;;;;;;;6.32;4.00;;;;;;;;;;5166317;27;20221;-71
2022/07/23 04:07:42;;;;;;;4.95;4.50;;;;;;;;;;5166079;27;20201;-71
2022/07/23 04:10:09;;;;;;;4.78;4.30;;;;;;;;;;5166216;27;20601;-71
2022/07/23 04:12:36;;;;;;;4.25;4.03;;;;;;;;;;5166371;27;20201;-71
2022/07/23 04:15:03;;;;;;;4.10;3.80;;;;;;;;;;5166397;27;20194;-71
2022/07/23 04:17:30;;;;;;;4.70;4.40;;;;;;;;;;5166076;27;20213;-69
2022/07/23 04:19:56;;;;;;;4.57;4.28;;;;;;;;;;5165821;27;20194;-69
2022/07/23 04:22:22;;;;;;;4.80;4.20;;;;;;;;;;5166252;27;20197;-69
2022/07/23 04:24:49;;;;;;;4.43;3.88;;;;;;;;;;5166093;27;20193;-69
2022/07/23 04:27:15;;;;;;;4.70;4.30;;;;;;;;;;5166118;27;20366;-69
2022/07/23 04:29:41;;;;;;;4.93;4.15;;;;;;;;;;5166152;27;20236;-69
2022/07/23 04:32:09;;;;;;;4.85;4.40;;;;;;;;;;5166458;27;20545;-69
2022/07/23 04:34:35;;;;;;;5.93;4.22;;;;;;;;;;5166066;27;20381;-69
2022/07/23 04:37:01;;;;;;;4.45;4.05;;;;;;;;;;5165655;27;20202;-69
2022/07/23 04:39:27;;;;;;;5.25;4.50;;;;;;;;;;5165823;27;20238;-69
2022/07/23 04:41:54;;;;;;;5.97;4.30;;;;;;;;;;5165946;27;20202;-69
2022/07/23 04:44:20;;;;;;;5.53;4.60;;;;;;;;;;5166029;27;20201;-69
2022/07/23 04:46:46;;;;;;;5.72;4.65;;;;;;;;;;5165623;27;20193;-69
2022/07/23 04:49:14;;;;;;;6.35;4.15;;;;;;;;;;5165614;27;20501;-69
2022/07/23 04:51:40;;;;;;;4.30;4.05;;;;;;;;;;5165573;27;20193;-69
2022/07/23 04:54:06;;;;;;;4.05;3.85;;;;;;;;;;5165511;27;20201;-69
2022/07/23 04:56:32;;;;;;;4.82;4.40;;;;;;;;;;5165597;27;20462;-69
2022/07/23 04:58:59;;;;;;;5.25;4.03;;;;;;;;;;5165716;27;20246;-69
2022/07/23 05:01:25;;;;;;;5.03;4.63;;;;;;;;;;5165568;27;20193;-69
2022/07/23 05:03:51;;;;;;;4.55;4.25;;;;;;;;;;5165461;27;20453;-69
2022/07/23 05:06:19;;;;;;;4.40;4.20;;;;;;;;;;5165168;27;20213;-69
2022/07/23 05:08:45;;;;;;;5.10;4.70;;;;;;;;;;5165572;27;20492;-69
2022/07/23 05:11:11;;;;;;;4.90;4.60;;;;;;;;;;5165147;27;20213;-69
2022/07/23 05:13:38;;;;;;;6.82;4.85;;;;;;;;;;5165408;27;20200;-69
2022/07/23 05:16:04;;;;;;;5.30;4.80;;;;;;;;;;5165128;27;20230;-69
2022/07/23 05:18:30;;;;;;;4.90;4.60;;;;;;;;;;5165144;27;20219;-69
2022/07/23 05:20:57;;;;;;;5.18;4.75;;;;;;;;;;5164955;27;20193;-69
2022/07/23 05:23:24;;;;;;;5.25;4.50;;;;;;;;;;5165288;27;20254;-69
2022/07/23 05:25:50;;;;;;;5.13;4.50;;;;;;;;;;5165203;27;20193;-69
2022/07/23 05:28:17;;;;;;;6.03;5.40;;;;;;;;;;5164891;27;20501;-69
2022/07/23 05:30:43;;;;;;;5.70;5.10;;;;;;;;;;5165137;27;20435;-69
2022/07/23 05:33:09;;;;;;;5.38;4.93;;;;;;;;;;5164068;27;20193;-69
2022/07/23 05:35:35;;;;;;;5.18;4.50;;;;;;;;;;5164742;27;20193;-69
2022/07/23 05:38:02;;;;;;;4.85;4.47;;;;;;;;;;5164605;27;20193;-69
2022/07/23 05:40:29;;;;;;;11.23;6.15;;;;;;;;;;5164756;27;20190;-69
2022/07/23 05:42:56;;;;;;;5.30;5.00;;;;;;;;;;5164829;27;20200;-69
2022/07/23 05:45:22;;;;;;;5.97;4.70;;;;;;;;;;5164800;27;20197;-69
2022/07/23 05:47:49;;;;;;;5.32;4.82;;;;;;;;;;5164500;27;20193;-69
2022/07/23 05:50:16;;;;;;;5.28;4.78;;;;;;;;;;5164395;27;20269;-69
2022/07/23 05:52:42;;;;;;;5.93;5.43;;;;;;;;;;5164499;27;20246;-69
2022/07/23 05:55:09;;;;;;;5.15;4.65;;;;;;;;;;5164664;27;20242;-69
2022/07/23 05:57:37;;;;;;;4.95;4.43;;;;;;;;;;5164365;27;20197;-69
2022/07/23 06:00:04;;;;;;;6.93;5.22;;;;;;;;;;5164400;27;20230;-69
2022/07/23 06:02:31;;;;;;;5.53;4.80;;;;;;;;;;5164357;27;20230;-69
2022/07/23 06:04:57;;;;;;;5.43;5.10;;;;;;;;;;5164318;27;20225;-69
2022/07/23 06:07:23;;;;;;;5.20;4.80;;;;;;;;;;5164120;27;20424;-69
2022/07/23 06:09:49;;;;;;;5.07;4.75;;;;;;;;;;5164458;27;20422;-69
2022/07/23 06:12:16;;;;;;;5.85;5.45;;;;;;;;;;5164330;27;20509;-69
2022/07/23 06:14:43;;;;;;;4.90;4.60;;;;;;;;;;5164310;27;20193;-69
2022/07/23 06:17:10;;;;;;;5.72;5.22;;;;;;;;;;5163981;27;20193;-69
2022/07/23 06:19:36;;;;;;;6.30;5.80;;;;;;;;;;5164358;27;20232;-69
2022/07/23 06:22:02;;;;;;;5.13;4.72;;;;;;;;;;5164415;27;20234;-69
2022/07/23 06:24:28;;;;;;;7.47;5.80;;;;;;;;;;5164221;27;20200;-69
2022/07/23 06:26:54;;;;;;;6.00;5.50;;;;;;;;;;5163961;27;20246;-69
2022/07/23 06:29:21;;;;;;;6.10;5.50;;;;;;;;;;5164152;27;20209;-69
2022/07/23 06:31:48;;;;;;;5.78;5.38;;;;;;;;;;5164457;27;20581;-69
2022/07/23 06:34:14;;;;;;;6.85;5.22;;;;;;;;;;5164215;27;20520;-69
2022/07/23 06:36:41;;;;;;;5.97;5.57;;;;;;;;;;5164133;27;20320;-69
2022/07/23 06:39:07;;;;;;;5.97;5.57;;;;;;;;;;5164103;27;20546;-69
2022/07/23 06:41:33;;;;;;;6.13;5.57;;;;;;;;;;5163924;27;20234;-69
2022/07/23 06:44:00;;;;;;;5.80;5.30;;;;;;;;;;5165754;27;20197;-69
2022/07/23 06:46:26;;;;;;;6.53;5.85;;;;;;;;;;5167832;27;20230;-69
2022/07/23 06:48:53;;;;;;;8.00;5.20;;;;;;;;;;5168194;27;20197;-69
2022/07/23 06:51:20;;;;;;;5.90;5.50;;;;;;;;;;5168271;27;20261;-69
2022/07/23 06:53:46;;;;;;;6.30;5.68;;;;;;;;;;5161619;27;20440;-62
2022/07/23 06:56:12;;;;;;;5.72;5.32;;;;;;;;;;5152208;27;20250;-62
2022/07/23 06:58:38;;;;;;;6.22;5.78;;;;;;;;;;5158198;27;20212;-63
2022/07/23 07:01:05;;;;;;;5.93;5.40;;;;;;;;;;5151941;27;20201;-63
2022/07/23 07:03:31;;;;;;;5.82;5.35;;;;;;;;;;5139131;27;20206;-63
2022/07/23 07:05:58;;;;;;;6.22;5.68;;;;;;;;;;5147105;27;20225;-64
2022/07/23 07:08:25;;;;;;;6.45;5.93;;;;;;;;;;5160478;27;20261;-64
2022/07/23 07:10:51;;;;;;;5.90;5.50;;;;;;;;;;5159903;27;20313;-66
2022/07/23 07:13:17;;;;;;;6.63;5.97;;;;;;;;;;5145265;27;20216;-65
2022/07/23 07:15:43;;;;;;;6.43;5.50;;;;;;;;;;5147122;27;20262;-65
2022/07/23 07:18:10;;;;;;;5.72;5.28;;;;;;;;;;5158838;27;20216;-65
2022/07/23 07:20:36;;;;;;;6.93;5.50;;;;;;;;;;5158290;27;20205;-65
2022/07/23 07:23:04;;;;;;;6.60;5.40;;;;;;;;;;5158349;27;20210;-64
2022/07/23 07:25:30;;;;;;;5.97;5.43;;;;;;;;;;5158666;27;20263;-64
2022/07/23 07:27:56;;;;;;;5.88;5.45;;;;;;;;;;5158595;27;20209;-64
2022/07/23 07:30:22;;;;;;;5.80;5.30;;;;;;;;;;5158594;27;20213;-64
2022/07/23 07:32:49;;;;;;;6.03;4.75;;;;;;;;;;5159416;27;20201;-63
2022/07/23 07:35:15;;;;;;;5.57;4.72;;;;;;;;;;5151037;27;20343;-63
2022/07/23 07:37:41;;;;;;;6.30;5.80;;;;;;;;;;5150836;27;20250;-63
2022/07/23 07:40:09;;;;;;;5.57;5.18;;;;;;;;;;5158340;27;20389;-64
2022/07/23 07:42:35;;;;;;;5.30;4.88;;;;;;;;;;5155746;27;20230;-64
2022/07/23 07:45:02;;;;;;;6.15;4.72;;;;;;;;;;5137606;27;20254;-63
2022/07/23 07:47:28;;;;;;;5.63;4.85;;;;;;;;;;5141058;27;20210;-65
2022/07/23 07:49:54;;;;;;;9.25;5.68;;;;;;;;;;5143409;27;20392;-65
2022/07/23 07:52:21;;;;;;;5.38;4.95;;;;;;;;;;5145790;27;20217;-64
2022/07/23 07:54:47;;;;;;;4.80;4.55;;;;;;;;;;5145280;27;20217;-64
2022/07/23 07:57:15;;;;;;;6.53;4.80;;;;;;;;;;5145567;27;20194;-64
2022/07/23 07:59:41;;;;;;;7.90;5.00;;;;;;;;;;5146065;27;20494;-64
2022/07/23 08:02:07;;;;;;;7.30;5.07;;;;;;;;;;5145885;27;20234;-64
2022/07/23 08:04:33;;;;;;;5.38;5.07;;;;;;;;;;5145894;27;20194;-64
2022/07/23 08:07:00;;;;;;;5.45;4.95;;;;;;;;;;5145549;27;20206;-64
2022/07/23 08:09:26;;;;;;;5.32;4.88;;;;;;;;;;5145769;27;20428;-64
2022/07/23 08:11:53;;;;;;;6.90;4.85;;;;;;;;;;5145603;27;20209;-64
2022/07/23 08:14:20;;;;;;;4.80;4.50;;;;;;;;;;5145904;27;20359;-64
2022/07/23 08:16:46;;;;;;;5.10;4.60;;;;;;;;;;5145373;27;20194;-64
2022/07/23 08:19:13;;;;;;;5.05;4.70;;;;;;;;;;5145498;27;20194;-65
2022/07/23 08:21:39;;;;;;;4.85;4.47;;;;;;;;;;5145582;27;20235;-65
2022/07/23 08:24:05;;;;;;;4.93;4.53;;;;;;;;;;5145544;27;20246;-65
2022/07/23 08:26:31;;;;;;;5.88;5.00;;;;;;;;;;5145151;27;20202;-64
2022/07/23 08:28:58;;;;;;;5.97;5.15;;;;;;;;;;5143165;27;20567;-64
2022/07/23 08:31:25;;;;;;;7.45;5.28;;;;;;;;;;5150030;27;20225;-64
2022/07/23 08:33:52;;;;;;;6.20;5.70;;;;;;;;;;5149476;27;20477;-63
2022/07/23 08:36:18;;;;;;;7.00;5.65;;;;;;;;;;5158473;27;20229;-63
2022/07/23 08:38:45;;;;;;;5.80;5.35;;;;;;;;;;5159722;27;20213;-64
2022/07/23 08:41:11;;;;;;;5.80;5.30;;;;;;;;;;5163313;27;20503;-63
2022/07/23 08:43:37;;;;;;;6.20;5.60;;;;;;;;;;5166000;27;20421;-63
2022/07/23 08:46:04;;;;;;;6.15;5.60;;;;;;;;;;5165785;27;20193;-63
2022/07/23 08:48:33;;;;;;;6.95;5.63;;;;;;;;;;5165814;27;20230;-63
2022/07/23 08:51:01;;;;;;;5.65;5.25;;;;;;;;;;5165626;27;20217;-63
2022/07/23 08:53:28;;;;;;;7.03;5.55;;;;;;;;;;5166065;27;20193;-63
2022/07/23 08:55:55;;;;;;;5.97;5.45;;;;;;;;;;5165541;27;20249;-63
2022/07/23 08:58:22;;;;;;;6.20;5.68;;;;;;;;;;5165651;27;20193;-63
2022/07/23 09:00:49;;;;;;;6.05;5.47;;;;;;;;;;5165553;27;20204;-63
2022/07/23 09:03:16;;;;;;;6.57;6.05;;;;;;;;;;5165523;27;20193;-63
2022/07/23 09:05:44;;;;;;;5.95;5.45;;;;;;;;;;5165182;27;20258;-63
2022/07/23 09:08:11;;;;;;;8.02;5.80;;;;;;;;;;5165051;27;20262;-63
2022/07/23 09:10:51;;;;;;;6.47;6.00;;;;;;;;;;5165296;27;20230;-63
2022/07/23 09:13:24;;;;;;;6.63;6.00;;;;;;;;;;5165436;27;20192;-63
2022/07/23 09:15:51;;;;;;;7.60;5.47;;;;;;;;;;5165674;27;20198;-63
2022/07/23 09:18:17;;;;;;;5.47;5.00;;;;;;;;;;5165076;27;20419;-63
2022/07/23 09:20:45;;;;;;;5.50;5.00;;;;;;;;;;5164903;27;20238;-63
2022/07/23 09:23:11;;;;;;;5.88;5.38;;;;;;;;;;5165230;27;20419;-63
2022/07/23 09:25:38;;;;;;;6.15;5.53;;;;;;;;;;5165063;27;20549;-63
2022/07/23 09:28:07;;;;;;;6.32;5.80;;;;;;;;;;5164898;27;20197;-63
2022/07/23 09:30:34;;;;;;;8.05;5.47;;;;;;;;;;5164930;27;20201;-63
2022/07/23 09:33:10;;;;;;;5.68;5.18;;;;;;;;;;5164856;27;20231;-63
2022/07/23 09:35:48;;;;;;;9.82;5.65;;;;;;;;;;5165111;27;20501;-64
2022/07/23 09:38:15;;;;;;;6.28;5.03;;;;;;;;;;5165261;27;20196;-71
2022/07/23 09:40:41;;;;;;;5.88;5.38;;;;;;;;;;5164920;27;20197;-70
2022/07/23 09:43:07;;;;;;;5.60;5.20;;;;;;;;;;5164820;27;20234;-70
2022/07/23 09:45:34;;;;;;;5.70;5.18;;;;;;;;;;5164534;27;20201;-71
2022/07/23 09:48:11;;;;;;;5.82;5.30;;;;;;;;;;5164451;27;20674;-72
2022/07/23 09:50:37;;;;;;;4.80;4.50;;;;;;;;;;5164760;27;20214;-72
2022/07/23 09:53:05;;;;;;;5.65;5.18;;;;;;;;;;5164900;27;20217;-72
2022/07/23 09:55:34;;;;;;;4.40;4.10;;;;;;;;;;5164647;27;20193;-72
2022/07/23 09:58:01;;;;;;;5.15;4.90;;;;;;;;;;5163906;27;20193;-72
2022/07/23 10:00:28;;;;;;;5.22;4.90;;;;;;;;;;5163837;27;20227;-72
2022/07/23 10:02:54;;;;;;;6.75;4.88;;;;;;;;;;5163132;27;20189;-72
2022/07/23 10:05:21;;;;;;;5.47;5.00;;;;;;;;;;5164003;27;20405;-72
2022/07/23 10:07:47;;;;;;;4.90;4.53;;;;;;;;;;5163992;27;20238;-72
2022/07/23 10:10:15;;;;;;;5.20;4.90;;;;;;;;;;5164395;27;20433;-72
2022/07/23 10:12:51;;;;;;;6.90;5.38;;;;;;;;;;5164173;27;20247;-72
2022/07/23 10:15:18;;;;;;;5.07;4.72;;;;;;;;;;5164511;27;20199;-72
2022/07/23 10:17:44;;;;;;;5.38;5.07;;;;;;;;;;5163810;27;20193;-72
2022/07/23 10:20:10;;;;;;;6.68;4.63;;;;;;;;;;5164037;27;20193;-72
2022/07/23 10:22:38;;;;;;;5.10;4.78;;;;;;;;;;5164189;27;20242;-72
2022/07/23 10:25:11;;;;;;;5.38;4.88;;;;;;;;;;5164154;27;20193;-72
2022/07/23 10:27:43;;;;;;;6.40;4.93;;;;;;;;;;5163919;27;20429;-72
2022/07/23 10:30:11;;;;;;;5.38;4.90;;;;;;;;;;5164255;27;20189;-73
2022/07/23 10:32:41;;;;;;;4.15;3.97;;;;;;;;;;5164055;27;20212;-72
2022/07/23 10:35:10;;;;;;;17.13;15.38;;;;;;;;;;5164167;27;20197;-72
2022/07/23 10:37:39;;;;;;;6.55;6.05;;;;;;;;;;5163676;27;20430;-72
2022/07/23 10:40:13;;;;;;;6.20;5.70;;;;;;;;;;5164283;27;20197;-72
2022/07/23 10:42:41;;;;;;;5.07;4.57;;;;;;;;;;5164254;27;20189;-72
2022/07/23 10:45:23;;;;;;;5.63;4.50;;;;;;;;;;5164091;27;20193;-73
2022/07/23 10:47:50;;;;;;;5.00;4.60;;;;;;;;;;5163522;27;20197;-73
2022/07/23 10:50:21;;;;;;;4.97;4.47;;;;;;;;;;5163687;27;20205;-72
2022/07/23 10:53:03;;;;;;;4.85;4.55;;;;;;;;;;5163925;27;20224;-71
2022/07/23 10:55:43;;;;;;;4.97;4.68;;;;;;;;;;5138751;27;20605;-71
2022/07/23 10:58:11;;;;;;;4.32;4.03;;;;;;;;;;5144998;27;20530;-72
2022/07/23 11:00:38;;;;;;;4.60;4.30;;;;;;;;;;5146031;27;20209;-72
2022/07/23 11:03:06;;;;;;;4.75;4.45;;;;;;;;;;5157738;27;20207;-72
2022/07/23 11:05:40;;;;;;;5.22;4.70;;;;;;;;;;5144659;27;20259;-73
2022/07/23 11:08:25;;;;;;;4.72;4.43;;;;;;;;;;5136389;27;20213;-72
2022/07/23 11:10:53;;;;;;;4.53;4.18;;;;;;;;;;5137564;27;20533;-72
2022/07/23 11:13:31;;;;;;;7.30;4.50;;;;;;;;;;5150985;27;20232;-72
2022/07/23 11:16:14;;;;;;;4.90;4.60;;;;;;;;;;5157363;27;20212;-73
2022/07/23 11:19:02;;;;;;;4.55;4.15;;;;;;;;;;5157498;27;20219;-72
2022/07/23 11:21:44;;;;;;;4.70;4.40;;;;;;;;;;5152487;27;20221;-73
2022/07/23 11:24:13;;;;;;;4.90;4.60;;;;;;;;;;5157619;27;20274;-72
2022/07/23 11:26:44;;;;;;;5.00;4.63;;;;;;;;;;5157212;27;20449;-72
2022/07/23 11:29:25;;;;;;;4.45;4.25;;;;;;;;;;5157726;27;20201;-69
2022/07/23 11:31:53;;;;;;;5.13;4.72;;;;;;;;;;5160217;27;20229;-72
2022/07/23 11:34:28;;;;;;;4.80;4.28;;;;;;;;;;5161416;27;20258;-72
2022/07/23 11:36:55;;;;;;;5.00;4.43;;;;;;;;;;5160707;27;20205;-71
2022/07/23 11:39:21;;;;;;;4.95;4.55;;;;;;;;;;5161318;27;20446;-73
2022/07/23 11:41:47;;;;;;;4.40;4.00;;;;;;;;;;5161409;27;20494;-74
2022/07/23 11:44:24;;;;;;;4.38;4.10;;;;;;;;;;5161147;27;20205;-72
2022/07/23 11:46:56;;;;;;;4.97;4.68;;;;;;;;;;5160412;27;20513;-73
2022/07/23 11:49:23;;;;;;;4.93;4.50;;;;;;;;;;5151283;27;20378;-73
2022/07/23 11:52:02;;;;;;;5.05;4.57;;;;;;;;;;5140127;27;20275;-73
2022/07/23 11:54:29;;;;;;;4.53;4.18;;;;;;;;;;5143523;27;20239;-72
2022/07/23 11:56:58;;;;;;;4.97;4.63;;;;;;;;;;5145644;27;20247;-72
2022/07/23 11:59:25;;;;;;;4.43;4.03;;;;;;;;;;5145987;27;20194;-75
2022/07/23 12:01:59;;;;;;;4.68;4.38;;;;;;;;;;5145972;27;20251;-72
2022/07/23 12:04:26;;;;;;;5.07;4.68;;;;;;;;;;5145915;27;20368;-72
2022/07/23 12:06:52;;;;;;;4.60;4.30;;;;;;;;;;5145539;27;20202;-72
2022/07/23 12:09:18;;;;;;;4.55;4.30;;;;;;;;;;5145777;27;20194;-73
2022/07/23 12:11:57;;;;;;;4.50;4.30;;;;;;;;;;5145689;27;20239;-73
2022/07/23 12:14:23;;;;;;;4.95;4.60;;;;;;;;;;5145956;27;20513;-73
2022/07/23 12:17:07;;;;;;;5.00;4.57;;;;;;;;;;5145402;27;20194;-73
2022/07/23 12:19:33;;;;;;;4.82;4.63;;;;;;;;;;5145696;27;20202;-73
2022/07/23 12:21:59;;;;;;;5.85;4.40;;;;;;;;;;5145441;27;20198;-73
2022/07/23 12:24:26;;;;;;;4.18;3.97;;;;;;;;;;5145716;27;20194;-73
2022/07/23 12:27:11;;;;;;;4.25;3.97;;;;;;;;;;5145463;27;20194;-73
2022/07/23 12:29:37;;;;;;;4.57;4.38;;;;;;;;;;5145519;27;20200;-70
2022/07/23 12:32:15;;;;;;;4.47;4.10;;;;;;;;;;5145304;27;20550;-72
2022/07/23 12:34:41;;;;;;;4.78;4.47;;;;;;;;;;5145609;27;20547;-72
2022/07/23 12:37:08;;;;;;;4.97;4.55;;;;;;;;;;5145162;27;20588;-73
2022/07/23 12:39:34;;;;;;;4.43;4.22;;;;;;;;;;5145257;27;20231;-73
2022/07/23 12:42:00;;;;;;;4.60;4.30;;;;;;;;;;5144738;27;20430;-73
2022/07/23 12:44:26;;;;;;;4.20;4.00;;;;;;;;;;5145222;27;20423;-72
2022/07/23 12:46:53;;;;;;;5.25;4.68;;;;;;;;;;5144696;27;20245;-71
2022/07/23 12:49:27;;;;;;;4.07;3.88;;;;;;;;;;5145483;27;20198;-71
2022/07/23 12:51:53;;;;;;;4.38;4.10;;;;;;;;;;5144763;27;20194;-71
2022/07/23 12:54:27;;;;;;;4.60;4.30;;;;;;;;;;5144955;27;20505;-71
2022/07/23 12:56:53;;;;;;;4.45;4.15;;;;;;;;;;5144664;27;20487;-71
2022/07/23 12:59:20;;;;;;;5.63;4.97;;;;;;;;;;5144732;27;20216;-71
2022/07/23 13:01:54;;;;;;;4.90;4.60;;;;;;;;;;5144909;27;20198;-71
2022/07/23 13:04:21;;;;;;;4.70;4.40;;;;;;;;;;5144760;27;20230;-71
2022/07/23 13:06:49;;;;;;;7.50;4.97;;;;;;;;;;5144461;27;20263;-71
2022/07/23 13:09:17;;;;;;;4.55;4.35;;;;;;;;;;5144572;27;20239;-72
2022/07/23 13:11:43;;;;;;;5.70;4.85;;;;;;;;;;5144626;27;20198;-73
2022/07/23 13:14:10;;;;;;;4.80;4.40;;;;;;;;;;5144513;27;20222;-71
2022/07/23 13:16:36;;;;;;;5.15;4.22;;;;;;;;;;5144520;27;20193;-71
2022/07/23 13:19:03;;;;;;;4.90;4.60;;;;;;;;;;5144630;27;20322;-71
2022/07/23 13:21:29;;;;;;;5.10;4.75;;;;;;;;;;5144453;27;20198;-71
2022/07/23 13:23:57;;;;;;;4.82;4.60;;;;;;;;;;5144377;27;20234;-71
2022/07/23 13:26:23;;;;;;;4.50;4.30;;;;;;;;;;5144043;27;20501;-71
2022/07/23 13:28:50;;;;;;;5.05;4.63;;;;;;;;;;5144487;27;20238;-71
2022/07/23 13:31:17;;;;;;;5.25;4.80;;;;;;;;;;5144240;27;20209;-71
2022/07/23 13:33:43;;;;;;;4.95;4.65;;;;;;;;;;5144127;27;20274;-72
2022/07/23 13:36:09;;;;;;;5.63;5.22;;;;;;;;;;5143877;27;20194;-71
2022/07/23 13:38:36;;;;;;;4.80;4.50;;;;;;;;;;5143912;27;20190;-71
2022/07/23 13:41:03;;;;;;;5.00;4.60;;;;;;;;;;5143931;27;20198;-71
2022/07/23 13:43:30;;;;;;;5.13;4.22;;;;;;;;;;5144115;27;20498;-71
2022/07/23 13:45:57;;;;;;;5.53;5.03;;;;;;;;;;5143857;27;20194;-71
2022/07/23 13:48:23;;;;;;;5.88;4.63;;;;;;;;;;5143939;27;20231;-71
2022/07/23 13:50:50;;;;;;;4.68;4.47;;;;;;;;;;5143919;27;20238;-71
2022/07/23 13:53:18;;;;;;;5.38;4.88;;;;;;;;;;5142935;27;20438;-71
2022/07/23 13:55:45;;;;;;;5.00;4.60;;;;;;;;;;5143748;27;20189;-72
2022/07/23 13:58:13;;;;;;;5.20;4.90;;;;;;;;;;5143817;27;20194;-71
2022/07/23 14:00:40;;;;;;;5.57;5.25;;;;;;;;;;5144150;27;20205;-70
2022/07/23 14:03:07;;;;;;;4.90;4.60;;;;;;;;;;5143716;27;20189;-72
2022/07/23 14:05:33;;;;;;;6.82;4.90;;;;;;;;;;5143284;27;20225;-71
2022/07/23 14:08:00;;;;;;;5.50;5.10;;;;;;;;;;5142206;27;20202;-71
2022/07/23 14:10:26;;;;;;;5.32;4.93;;;;;;;;;;5148563;27;20458;-70
2022/07/23 14:12:55;;;;;;;5.70;5.05;;;;;;;;;;5153437;27;20224;-70
2022/07/23 14:15:23;;;;;;;5.43;4.93;;;;;;;;;;5153819;27;20213;-71
2022/07/23 14:17:50;;;;;;;5.65;5.28;;;;;;;;;;5149004;27;20266;-71
2022/07/23 14:20:16;;;;;;;4.72;4.53;;;;;;;;;;5138076;27;20210;-71
2022/07/23 14:22:43;;;;;;;4.57;4.30;;;;;;;;;;5137208;27;20426;-70
2022/07/23 14:25:10;;;;;;;5.30;4.88;;;;;;;;;;5141388;27;20205;-71
2022/07/23 14:27:37;;;;;;;5.00;4.55;;;;;;;;;;5155351;27;20206;-71
2022/07/23 14:30:04;;;;;;;5.53;4.55;;;;;;;;;;5154041;27;20197;-71
2022/07/23 14:32:31;;;;;;;5.68;5.25;;;;;;;;;;5140126;27;20206;-72
2022/07/23 14:34:57;;;;;;;6.15;5.53;;;;;;;;;;5140382;27;20239;-71
2022/07/23 14:37:24;;;;;;;6.10;5.50;;;;;;;;;;5140312;27;20293;-71
2022/07/23 14:39:51;;;;;;;5.72;5.07;;;;;;;;;;5161332;27;20234;-70
2022/07/23 14:42:17;;;;;;;6.50;6.00;;;;;;;;;;5141233;27;20208;-70
2022/07/23 14:44:43;;;;;;;6.35;5.88;;;;;;;;;;5138913;27;20206;-70